createdAt,value
2022-08-10T00:00:33.398Z,1026.46
2022-08-10T00:01:37.696Z,1026.45
2022-08-10T00:02:42.002Z,1026.44
2022-08-10T00:03:46.308Z,1026.45
2022-08-10T00:04:50.622Z,1026.45
2022-08-10T00:05:55.048Z,1026.45
2022-08-10T00:06:59.320Z,1026.47
2022-08-10T00:08:03.642Z,1026.48
2022-08-10T00:09:08.077Z,1026.46
2022-08-10T00:10:12.452Z,1026.46
2022-08-10T00:11:16.997Z,1026.45
2022-08-10T00:12:21.067Z,1026.43
2022-08-10T00:13:25.392Z,1026.41
2022-08-10T00:14:29.717Z,1026.40
2022-08-10T00:15:52.433Z,1026.39
2022-08-10T00:16:38.462Z,1026.35
2022-08-10T00:17:42.726Z,1026.35
2022-08-10T00:18:47.059Z,1026.34
2022-08-10T00:20:03.986Z,1026.34
2022-08-10T00:20:55.724Z,1026.34
2022-08-10T00:22:00.018Z,1026.33
2022-08-10T00:23:04.322Z,1026.32
2022-08-10T00:24:08.745Z,1026.33
2022-08-10T00:25:12.994Z,1026.33
2022-08-10T00:26:17.327Z,1026.36
2022-08-10T00:28:00.834Z,1026.34
2022-08-10T00:28:25.978Z,1026.34
2022-08-10T00:29:30.398Z,1026.35
2022-08-10T00:30:34.659Z,1026.35
2022-08-10T00:31:58.834Z,1026.35
2022-08-10T00:32:43.302Z,1026.36
2022-08-10T00:33:47.625Z,1026.35
2022-08-10T00:34:51.933Z,1026.36
2022-08-10T00:35:56.298Z,1026.35
2022-08-10T00:37:00.678Z,1026.33
2022-08-10T00:38:04.934Z,1026.33
2022-08-10T00:39:13.302Z,1026.33
2022-08-10T00:40:13.487Z,1026.32
2022-08-10T00:41:17.836Z,1026.29
2022-08-10T00:42:22.127Z,1026.29
2022-08-10T00:43:26.432Z,1026.27
2022-08-10T00:44:30.771Z,1026.29
2022-08-10T00:45:35.059Z,1026.29
2022-08-10T00:46:39.453Z,1026.29
2022-08-10T00:47:43.804Z,1026.29
2022-08-10T00:49:00.145Z,1026.27
2022-08-10T00:49:52.491Z,1026.28
2022-08-10T00:50:56.848Z,1026.27
2022-08-10T00:52:01.224Z,1026.27
2022-08-10T00:53:05.502Z,1026.27
2022-08-10T00:54:09.793Z,1026.27
2022-08-10T00:55:14.133Z,1026.25
2022-08-10T00:56:35.015Z,1026.26
2022-08-10T00:57:22.806Z,1026.26
2022-08-10T00:58:27.109Z,1026.28
2022-08-10T00:59:31.494Z,1026.29
2022-08-10T01:00:35.865Z,1026.30
2022-08-10T01:02:10.729Z,1026.32
2022-08-10T01:02:44.547Z,1026.33
2022-08-10T01:04:40.328Z,1026.32
2022-08-10T01:04:59.493Z,1026.32
2022-08-10T01:05:57.388Z,1026.33
2022-08-10T01:07:01.829Z,1026.31
2022-08-10T01:08:06.097Z,1026.29
2022-08-10T01:09:10.399Z,1026.29
2022-08-10T01:10:14.697Z,1026.27
2022-08-10T01:12:37.442Z,1026.29
2022-08-10T01:12:37.619Z,1026.29
2022-08-10T01:13:27.643Z,1026.31
2022-08-10T01:14:31.924Z,1026.30
2022-08-10T01:15:36.326Z,1026.30
2022-08-10T01:16:40.591Z,1026.30
2022-08-10T01:17:50.815Z,1026.27
2022-08-10T01:18:49.244Z,1026.26
2022-08-10T01:19:53.562Z,1026.27
2022-08-10T01:20:57.841Z,1026.28
2022-08-10T01:22:02.220Z,1026.31
2022-08-10T01:23:06.513Z,1026.31
2022-08-10T01:24:10.771Z,1026.33
2022-08-10T01:25:15.091Z,1026.32
2022-08-10T01:26:31.149Z,1026.33
2022-08-10T01:27:27.193Z,1026.31
2022-08-10T01:28:28.087Z,1026.30
2022-08-10T01:29:32.319Z,1026.30
2022-08-10T01:30:36.643Z,1026.31
2022-08-10T01:31:41.015Z,1026.32
2022-08-10T01:32:45.354Z,1026.33
2022-08-10T01:33:58.206Z,1026.34
2022-08-10T01:34:53.980Z,1026.35
2022-08-10T01:35:58.321Z,1026.35
2022-08-10T01:37:02.683Z,1026.35
2022-08-10T01:38:06.993Z,1026.35
2022-08-10T01:39:11.379Z,1026.35
2022-08-10T01:40:16.713Z,1026.33
2022-08-10T01:41:19.996Z,1026.33
2022-08-10T01:42:24.273Z,1026.33
2022-08-10T01:43:28.699Z,1026.34
2022-08-10T01:44:32.960Z,1026.34
2022-08-10T01:45:45.021Z,1026.35
2022-08-10T01:46:41.615Z,1026.36
2022-08-10T01:47:45.914Z,1026.34
2022-08-10T01:48:50.333Z,1026.33
2022-08-10T01:49:54.737Z,1026.35
2022-08-10T01:51:00.558Z,1026.35
2022-08-10T01:52:03.395Z,1026.36
2022-08-10T01:53:07.678Z,1026.36
2022-08-10T01:54:13.203Z,1026.35
2022-08-10T01:55:16.422Z,1026.35
2022-08-10T01:56:20.832Z,1026.29
2022-08-10T01:57:25.165Z,1026.29
2022-08-10T01:58:29.471Z,1026.26
2022-08-10T01:59:33.861Z,1026.24
2022-08-10T02:00:38.121Z,1026.25
2022-08-10T02:01:42.565Z,1026.23
2022-08-10T02:02:46.796Z,1026.20
2022-08-10T02:04:03.863Z,1026.20
2022-08-10T02:04:55.539Z,1026.20
2022-08-10T02:05:59.791Z,1026.20
2022-08-10T02:07:04.127Z,1026.21
2022-08-10T02:08:08.523Z,1026.22
2022-08-10T02:09:12.890Z,1026.24
2022-08-10T02:10:17.162Z,1026.26
2022-08-10T02:11:21.488Z,1026.27
2022-08-10T02:12:25.992Z,1026.28
2022-08-10T02:13:30.276Z,1026.30
2022-08-10T02:14:34.812Z,1026.33
2022-08-10T02:15:38.862Z,1026.32
2022-08-10T02:16:43.153Z,1026.34
2022-08-10T02:17:57.732Z,1026.33
2022-08-10T02:18:51.801Z,1026.33
2022-08-10T02:19:56.137Z,1026.32
2022-08-10T02:21:00.398Z,1026.34
2022-08-10T02:22:38.080Z,1026.35
2022-08-10T02:23:08.974Z,1026.35
2022-08-10T02:24:13.410Z,1026.35
2022-08-10T02:25:42.526Z,1026.34
2022-08-10T02:26:21.969Z,1026.35
2022-08-10T02:27:26.317Z,1026.36
2022-08-10T02:28:31.263Z,1026.38
2022-08-10T02:29:34.992Z,1026.37
2022-08-10T02:30:39.280Z,1026.38
2022-08-10T02:31:43.635Z,1026.36
2022-08-10T02:32:49.624Z,1026.37
2022-08-10T02:33:57.680Z,1026.37
2022-08-10T02:34:56.736Z,1026.37
2022-08-10T02:36:01.015Z,1026.37
2022-08-10T02:37:10.728Z,1026.35
2022-08-10T02:38:09.668Z,1026.32
2022-08-10T02:39:13.953Z,1026.34
2022-08-10T02:45:13.191Z,1026.32
2022-08-10T02:45:16.177Z,1026.33
2022-08-10T02:45:18.409Z,1026.32
2022-08-10T02:45:26.548Z,1026.32
2022-08-10T02:45:29.491Z,1026.33
2022-08-10T02:45:40.449Z,1026.32
2022-08-10T02:46:44.374Z,1026.32
2022-08-10T02:47:52.314Z,1026.34
2022-08-10T02:48:52.984Z,1026.34
2022-08-10T02:49:57.315Z,1026.32
2022-08-10T02:51:01.681Z,1026.34
2022-08-10T02:52:08.982Z,1026.35
2022-08-10T02:53:10.241Z,1026.37
2022-08-10T02:54:14.526Z,1026.36
2022-08-10T02:55:18.832Z,1026.36
2022-08-10T02:56:23.208Z,1026.37
2022-08-10T02:57:27.569Z,1026.35
2022-08-10T02:58:31.927Z,1026.37
2022-08-10T02:59:39.836Z,1026.39
2022-08-10T03:00:40.647Z,1026.40
2022-08-10T03:01:44.826Z,1026.41
2022-08-10T03:02:49.112Z,1026.42
2022-08-10T03:03:53.520Z,1026.43
2022-08-10T03:04:58.470Z,1026.44
2022-08-10T03:06:02.141Z,1026.45
2022-08-10T03:07:06.497Z,1026.43
2022-08-10T03:08:10.851Z,1026.44
2022-08-10T03:09:15.357Z,1026.44
2022-08-10T03:10:19.489Z,1026.47
2022-08-10T03:12:34.811Z,1026.48
2022-08-10T03:12:36.912Z,1026.49
2022-08-10T03:13:32.443Z,1026.48
2022-08-10T03:14:36.755Z,1026.45
2022-08-10T03:15:41.016Z,1026.44
2022-08-10T03:16:45.326Z,1026.45
2022-08-10T03:17:57.127Z,1026.43
2022-08-10T03:18:53.893Z,1026.43
2022-08-10T03:20:33.397Z,1026.44
2022-08-10T03:21:02.522Z,1026.44
2022-08-10T03:22:06.774Z,1026.44
2022-08-10T03:23:11.098Z,1026.45
2022-08-10T03:24:24.872Z,1026.46
2022-08-10T03:25:19.745Z,1026.47
2022-08-10T03:26:24.028Z,1026.47
2022-08-10T03:27:28.303Z,1026.46
2022-08-10T03:28:32.679Z,1026.44
2022-08-10T03:30:28.213Z,1026.45
2022-08-10T03:30:41.219Z,1026.45
2022-08-10T03:31:45.501Z,1026.44
2022-08-10T03:32:49.876Z,1026.45
2022-08-10T03:33:54.224Z,1026.45
2022-08-10T03:34:58.454Z,1026.47
2022-08-10T03:36:41.560Z,1026.49
2022-08-10T03:37:07.171Z,1026.50
2022-08-10T03:38:11.428Z,1026.50
2022-08-10T03:39:15.858Z,1026.51
2022-08-10T03:40:20.040Z,1026.50
2022-08-10T03:41:24.349Z,1026.49
2022-08-10T03:42:28.742Z,1026.49
2022-08-10T03:43:33.059Z,1026.50
2022-08-10T03:44:37.284Z,1026.50
2022-08-10T03:45:55.469Z,1026.48
2022-08-10T03:46:45.831Z,1026.48
2022-08-10T03:47:50.248Z,1026.48
2022-08-10T03:48:54.571Z,1026.49
2022-08-10T03:49:58.821Z,1026.49
2022-08-10T03:51:03.217Z,1026.52
2022-08-10T03:52:07.461Z,1026.53
2022-08-10T03:53:25.328Z,1026.53
2022-08-10T03:54:16.087Z,1026.54
2022-08-10T03:56:26.947Z,1026.53
2022-08-10T03:56:29.909Z,1026.55
2022-08-10T03:57:29.075Z,1026.55
2022-08-10T03:58:33.402Z,1026.57
2022-08-10T03:59:37.774Z,1026.57
2022-08-10T04:00:42.098Z,1026.56
2022-08-10T04:02:43.272Z,1026.58
2022-08-10T04:02:50.764Z,1026.56
2022-08-10T04:04:11.697Z,1026.57
2022-08-10T04:04:59.454Z,1026.58
2022-08-10T04:06:03.677Z,1026.60
2022-08-10T04:07:07.966Z,1026.58
2022-08-10T04:08:12.257Z,1026.60
2022-08-10T04:09:16.553Z,1026.62
2022-08-10T04:10:20.837Z,1026.62
2022-08-10T04:11:25.159Z,1026.63
2022-08-10T04:12:29.494Z,1026.60
2022-08-10T04:13:33.855Z,1026.60
2022-08-10T04:14:49.776Z,1026.63
2022-08-10T04:15:42.419Z,1026.65
2022-08-10T04:16:46.758Z,1026.67
2022-08-10T04:18:03.728Z,1026.68
2022-08-10T04:18:55.387Z,1026.68
2022-08-10T04:19:59.734Z,1026.70
2022-08-10T04:21:04.070Z,1026.73
2022-08-10T04:22:08.338Z,1026.73
2022-08-10T04:23:12.632Z,1026.74
2022-08-10T04:24:26.833Z,1026.75
2022-08-10T04:25:21.249Z,1026.75
2022-08-10T04:26:25.510Z,1026.75
2022-08-10T04:27:29.769Z,1026.77
2022-08-10T04:28:34.056Z,1026.76
2022-08-10T04:29:38.452Z,1026.76
2022-08-10T04:30:42.811Z,1026.78
2022-08-10T04:31:47.075Z,1026.77
2022-08-10T04:32:51.373Z,1026.78
2022-08-10T04:33:55.620Z,1026.78
2022-08-10T04:34:59.910Z,1026.79
2022-08-10T04:36:04.237Z,1026.81
2022-08-10T04:37:09.336Z,1026.84
2022-08-10T04:38:12.926Z,1026.84
2022-08-10T04:39:17.268Z,1026.83
2022-08-10T04:40:29.393Z,1026.84
2022-08-10T04:41:25.884Z,1026.83
2022-08-10T04:42:30.247Z,1026.84
2022-08-10T04:43:34.551Z,1026.82
2022-08-10T04:44:38.891Z,1026.82
2022-08-10T04:45:50.107Z,1026.84
2022-08-10T04:46:58.380Z,1026.85
2022-08-10T04:48:00.705Z,1026.84
2022-08-10T04:49:01.961Z,1026.84
2022-08-10T04:50:02.684Z,1026.84
2022-08-10T04:51:07.371Z,1026.85
2022-08-10T04:52:11.402Z,1026.83
2022-08-10T04:53:15.744Z,1026.84
2022-08-10T04:54:20.065Z,1026.82
2022-08-10T04:55:24.422Z,1026.82
2022-08-10T04:56:31.473Z,1026.81
2022-08-10T04:57:33.138Z,1026.83
2022-08-10T04:58:37.370Z,1026.85
2022-08-10T04:59:41.714Z,1026.85
2022-08-10T05:00:46.211Z,1026.85
2022-08-10T05:02:27.087Z,1026.83
2022-08-10T05:02:54.841Z,1026.80
2022-08-10T05:04:37.854Z,1026.79
2022-08-10T05:05:03.401Z,1026.78
2022-08-10T05:06:07.701Z,1026.77
2022-08-10T05:07:16.030Z,1026.76
2022-08-10T05:08:16.282Z,1026.77
2022-08-10T05:09:23.574Z,1026.78
2022-08-10T05:10:27.090Z,1026.74
2022-08-10T05:11:31.400Z,1026.73
2022-08-10T05:12:37.493Z,1026.73
2022-08-10T05:13:40.050Z,1026.75
2022-08-10T05:14:44.293Z,1026.75
2022-08-10T05:15:48.709Z,1026.73
2022-08-10T05:16:53.043Z,1026.74
2022-08-10T05:18:06.904Z,1026.74
2022-08-10T05:19:01.622Z,1026.73
2022-08-10T05:20:06.755Z,1026.69
2022-08-10T05:21:10.374Z,1026.70
2022-08-10T05:22:14.744Z,1026.72
2022-08-10T05:23:19.044Z,1026.72
2022-08-10T05:24:23.355Z,1026.73
2022-08-10T05:25:27.718Z,1026.75
2022-08-10T05:26:32.108Z,1026.74
2022-08-10T05:27:36.460Z,1026.72
2022-08-10T05:28:40.821Z,1026.72
2022-08-10T05:29:45.208Z,1026.73
2022-08-10T05:30:49.522Z,1026.74
2022-08-10T05:31:53.925Z,1026.75
2022-08-10T05:33:01.641Z,1026.76
2022-08-10T05:34:02.547Z,1026.75
2022-08-10T05:35:06.824Z,1026.74
2022-08-10T05:36:11.169Z,1026.74
2022-08-10T05:38:13.430Z,1026.74
2022-08-10T05:38:19.883Z,1026.75
2022-08-10T05:39:28.708Z,1026.75
2022-08-10T05:40:28.554Z,1026.75
2022-08-10T05:41:32.902Z,1026.76
2022-08-10T05:42:37.513Z,1026.79
2022-08-10T05:43:41.574Z,1026.77
2022-08-10T05:44:45.919Z,1026.78
2022-08-10T05:46:17.054Z,1026.77
2022-08-10T05:46:54.683Z,1026.78
2022-08-10T05:48:54.899Z,1026.77
2022-08-10T05:49:03.391Z,1026.76
2022-08-10T05:50:07.668Z,1026.74
2022-08-10T05:51:12.100Z,1026.75
2022-08-10T05:52:16.418Z,1026.72
2022-08-10T05:53:59.538Z,1026.71
2022-08-10T05:54:25.326Z,1026.71
2022-08-10T05:55:29.597Z,1026.67
2022-08-10T05:56:55.641Z,1026.69
2022-08-10T05:57:38.267Z,1026.68
2022-08-10T05:58:42.657Z,1026.68
2022-08-10T06:00:32.386Z,1026.68
2022-08-10T06:00:51.373Z,1026.67
2022-08-10T06:02:41.136Z,1026.62
2022-08-10T06:03:00.118Z,1026.61
2022-08-10T06:04:04.531Z,1026.58
2022-08-10T06:05:08.944Z,1026.57
2022-08-10T06:06:13.318Z,1026.56
2022-08-10T06:07:21.574Z,1026.57
2022-08-10T06:08:22.057Z,1026.56
2022-08-10T06:09:26.386Z,1026.57
2022-08-10T06:10:32.713Z,1026.56
2022-08-10T06:12:27.686Z,1026.57
2022-08-10T06:12:55.398Z,1026.57
2022-08-10T06:14:13.418Z,1026.57
2022-08-10T06:14:48.531Z,1026.57
2022-08-10T06:15:52.725Z,1026.58
2022-08-10T06:16:57.084Z,1026.57
2022-08-10T06:18:02.065Z,1026.58
2022-08-10T06:19:05.879Z,1026.56
2022-08-10T06:20:10.189Z,1026.53
2022-08-10T06:21:14.567Z,1026.52
2022-08-10T06:22:18.898Z,1026.51
2022-08-10T06:23:23.282Z,1026.50
2022-08-10T06:24:30.453Z,1026.51
2022-08-10T06:26:11.376Z,1026.51
2022-08-10T06:26:36.443Z,1026.53
2022-08-10T06:27:40.822Z,1026.52
2022-08-10T06:29:03.127Z,1026.50
2022-08-10T06:29:49.626Z,1026.48
2022-08-10T06:30:54.020Z,1026.44
2022-08-10T06:31:58.417Z,1026.45
2022-08-10T06:33:02.808Z,1026.47
2022-08-10T06:34:07.255Z,1026.49
2022-08-10T06:35:11.629Z,1026.48
2022-08-10T06:36:15.935Z,1026.48
2022-08-10T06:37:20.433Z,1026.48
2022-08-10T06:38:24.841Z,1026.47
2022-08-10T06:39:34.130Z,1026.48
2022-08-10T06:40:33.703Z,1026.51
2022-08-10T06:41:57.720Z,1026.50
2022-08-10T06:42:42.518Z,1026.54
2022-08-10T06:43:46.892Z,1026.52
2022-08-10T06:44:51.208Z,1026.51
2022-08-10T06:46:07.411Z,1026.53
2022-08-10T06:47:00.119Z,1026.55
2022-08-10T06:48:04.537Z,1026.54
2022-08-10T06:49:08.978Z,1026.57
2022-08-10T06:50:13.390Z,1026.59
2022-08-10T06:51:17.815Z,1026.63
2022-08-10T06:52:22.324Z,1026.65
2022-08-10T06:53:53.119Z,1026.65
2022-08-10T06:54:33.247Z,1026.65
2022-08-10T06:55:40.213Z,1026.66
2022-08-10T06:56:55.786Z,1026.65
2022-08-10T06:57:59.409Z,1026.61
2022-08-10T06:58:53.860Z,1026.59
2022-08-10T06:59:57.442Z,1026.58
2022-08-10T07:01:01.920Z,1026.57
2022-08-10T07:02:12.172Z,1026.57
2022-08-10T07:03:15.349Z,1026.57
2022-08-10T07:04:19.722Z,1026.55
2022-08-10T07:05:24.105Z,1026.55
2022-08-10T07:06:28.585Z,1026.55
2022-08-10T07:07:33.615Z,1026.51
2022-08-10T07:08:37.458Z,1026.48
2022-08-10T07:09:41.872Z,1026.46
2022-08-10T07:10:46.765Z,1026.45
2022-08-10T07:11:50.712Z,1026.46
2022-08-10T07:12:55.182Z,1026.45
2022-08-10T07:14:16.018Z,1026.45
2022-08-10T07:15:04.030Z,1026.44
2022-08-10T07:16:09.384Z,1026.48
2022-08-10T07:17:15.826Z,1026.41
2022-08-10T07:18:17.751Z,1026.40
2022-08-10T07:19:23.276Z,1026.39
2022-08-10T07:20:30.259Z,1026.40
2022-08-10T07:21:33.778Z,1026.43
2022-08-10T07:23:01.255Z,1026.45
2022-08-10T07:23:59.770Z,1026.48
2022-08-10T07:24:52.095Z,1026.48
2022-08-10T07:25:55.575Z,1026.48
2022-08-10T07:27:00.957Z,1026.50
2022-08-10T07:28:04.926Z,1026.53
2022-08-10T07:29:09.239Z,1026.53
2022-08-10T07:31:56.929Z,1026.55
2022-08-10T07:32:48.912Z,1026.53
2022-08-10T07:33:53.467Z,1026.51
2022-08-10T07:34:57.328Z,1026.51
2022-08-10T07:36:01.703Z,1026.52
2022-08-10T07:37:06.169Z,1026.51
2022-08-10T07:38:13.588Z,1026.51
2022-08-10T07:39:17.208Z,1026.50
2022-08-10T07:40:21.780Z,1026.52
2022-08-10T07:41:25.931Z,1026.52
2022-08-10T07:42:34.323Z,1026.48
2022-08-10T07:43:34.800Z,1026.49
2022-08-10T07:44:39.189Z,1026.49
2022-08-10T07:45:43.569Z,1026.53
2022-08-10T07:46:48.057Z,1026.52
2022-08-10T07:47:55.504Z,1026.52
2022-08-10T07:48:59.035Z,1026.56
2022-08-10T07:50:03.463Z,1026.55
2022-08-10T07:51:07.845Z,1026.61
2022-08-10T07:52:12.272Z,1026.58
2022-08-10T07:53:16.673Z,1026.58
2022-08-10T07:54:24.139Z,1026.58
2022-08-10T07:56:03.629Z,1026.57
2022-08-10T07:56:48.483Z,1026.56
2022-08-10T07:57:41.515Z,1026.57
2022-08-10T07:58:46.462Z,1026.58
2022-08-10T07:59:49.354Z,1026.56
2022-08-10T08:00:53.709Z,1026.55
2022-08-10T08:02:01.303Z,1026.54
2022-08-10T08:03:05.715Z,1026.53
2022-08-10T08:04:11.360Z,1026.53
2022-08-10T08:05:29.892Z,1026.54
2022-08-10T08:06:18.449Z,1026.51
2022-08-10T08:07:22.938Z,1026.54
2022-08-10T08:08:28.879Z,1026.53
2022-08-10T08:09:31.612Z,1026.52
2022-08-10T08:10:39.105Z,1026.53
2022-08-10T08:11:42.696Z,1026.52
2022-08-10T08:12:53.006Z,1026.51
2022-08-10T08:13:56.121Z,1026.53
2022-08-10T08:15:00.418Z,1026.50
2022-08-10T08:16:17.418Z,1026.50
2022-08-10T08:17:11.291Z,1026.49
2022-08-10T08:18:24.871Z,1026.50
2022-08-10T08:19:26.727Z,1026.52
2022-08-10T08:20:32.565Z,1026.50
2022-08-10T08:24:07.518Z,1026.52
2022-08-10T08:24:14.653Z,1026.51
2022-08-10T08:24:30.561Z,1026.51
2022-08-10T08:24:49.303Z,1026.55
2022-08-10T08:25:53.747Z,1026.53
2022-08-10T08:27:01.188Z,1026.52
2022-08-10T08:28:04.811Z,1026.51
2022-08-10T08:29:09.138Z,1026.51
2022-08-10T08:30:14.531Z,1026.54
2022-08-10T08:31:18.574Z,1026.52
2022-08-10T08:32:23.032Z,1026.49
2022-08-10T08:33:42.146Z,1026.47
2022-08-10T08:34:31.922Z,1026.47
2022-08-10T08:35:36.386Z,1026.44
2022-08-10T08:36:40.837Z,1026.45
2022-08-10T08:38:29.909Z,1026.45
2022-08-10T08:38:49.557Z,1026.48
2022-08-10T08:39:56.961Z,1026.47
2022-08-10T08:41:00.624Z,1026.44
2022-08-10T08:42:08.144Z,1026.44
2022-08-10T08:43:11.687Z,1026.41
2022-08-10T08:44:16.047Z,1026.39
2022-08-10T08:45:20.513Z,1026.41
2022-08-10T08:46:24.953Z,1026.43
2022-08-10T08:48:03.152Z,1026.41
2022-08-10T08:48:33.802Z,1026.45
2022-08-10T08:50:04.722Z,1026.46
2022-08-10T08:50:42.625Z,1026.46
2022-08-10T08:52:09.259Z,1026.44
2022-08-10T08:52:51.501Z,1026.43
2022-08-10T08:54:01.877Z,1026.43
2022-08-10T08:55:00.293Z,1026.46
2022-08-10T08:56:07.163Z,1026.37
2022-08-10T08:57:09.234Z,1026.38
2022-08-10T08:58:13.680Z,1026.34
2022-08-10T08:59:18.020Z,1026.33
2022-08-10T09:00:25.400Z,1026.29
2022-08-10T09:01:37.715Z,1026.35
2022-08-10T09:02:33.618Z,1026.34
2022-08-10T09:03:37.901Z,1026.33
2022-08-10T09:04:42.376Z,1026.31
2022-08-10T09:05:59.358Z,1026.29
2022-08-10T09:06:51.292Z,1026.29
2022-08-10T09:08:01.080Z,1026.31
2022-08-10T09:09:00.237Z,1026.28
2022-08-10T09:10:04.687Z,1026.28
2022-08-10T09:11:09.162Z,1026.28
2022-08-10T09:12:13.596Z,1026.23
2022-08-10T09:13:18.081Z,1026.20
2022-08-10T09:14:25.899Z,1026.22
2022-08-10T09:15:40.776Z,1026.24
2022-08-10T09:16:31.458Z,1026.23
2022-08-10T09:17:35.837Z,1026.21
2022-08-10T09:18:40.323Z,1026.22
2022-08-10T09:19:44.815Z,1026.25
2022-08-10T09:20:49.274Z,1026.25
2022-08-10T09:21:58.655Z,1026.26
2022-08-10T09:22:58.184Z,1026.25
2022-08-10T09:24:05.721Z,1026.18
2022-08-10T09:25:07.096Z,1026.17
2022-08-10T09:26:11.576Z,1026.17
2022-08-10T09:27:16.018Z,1026.14
2022-08-10T09:28:20.533Z,1026.13
2022-08-10T09:29:24.983Z,1026.13
2022-08-10T09:30:32.324Z,1026.12
2022-08-10T09:31:36.536Z,1026.10
2022-08-10T09:36:17.574Z,1026.08
2022-08-10T09:36:23.865Z,1026.07
2022-08-10T09:36:27.544Z,1026.07
2022-08-10T09:36:27.929Z,1026.05
2022-08-10T09:37:09.454Z,1026.05
2022-08-10T09:38:13.918Z,1026.06
2022-08-10T09:40:56.532Z,1026.07
2022-08-10T09:41:00.415Z,1026.03
2022-08-10T09:41:27.348Z,1026.03
2022-08-10T09:42:31.754Z,1025.99
2022-08-10T09:43:36.136Z,1025.99
2022-08-10T09:44:57.265Z,1026.03
2022-08-10T09:45:45.073Z,1026.01
2022-08-10T09:46:49.513Z,1026.04
2022-08-10T09:48:02.484Z,1026.01
2022-08-10T09:48:58.385Z,1026.03
2022-08-10T09:50:04.895Z,1026.00
2022-08-10T09:52:11.649Z,1025.98
2022-08-10T09:53:16.141Z,1025.98
2022-08-10T09:54:20.618Z,1025.94
2022-08-10T09:56:18.579Z,1025.99
2022-08-10T09:56:29.548Z,1025.97
2022-08-10T09:57:45.044Z,1025.97
2022-08-10T09:58:38.445Z,1025.98
2022-08-10T10:00:01.941Z,1025.96
2022-08-10T10:00:47.343Z,1025.95
2022-08-10T10:01:57.953Z,1025.95
2022-08-10T10:02:56.402Z,1025.96
2022-08-10T10:04:00.754Z,1025.95
2022-08-10T10:05:05.336Z,1025.90
2022-08-10T10:06:09.762Z,1025.90
2022-08-10T10:07:14.246Z,1025.89
2022-08-10T10:08:18.702Z,1025.89
2022-08-10T10:09:26.948Z,1025.88
2022-08-10T10:10:27.664Z,1025.86
2022-08-10T10:11:32.153Z,1025.84
2022-08-10T10:12:36.628Z,1025.84
2022-08-10T10:13:48.930Z,1025.83
2022-08-10T10:14:45.522Z,1025.82
2022-08-10T10:15:50.043Z,1025.80
2022-08-10T10:16:54.467Z,1025.75
2022-08-10T10:17:58.833Z,1025.76
2022-08-10T10:19:03.326Z,1025.71
2022-08-10T10:20:07.786Z,1025.71
2022-08-10T10:21:12.200Z,1025.71
2022-08-10T10:22:16.628Z,1025.69
2022-08-10T10:23:21.156Z,1025.65
2022-08-10T10:24:25.497Z,1025.68
2022-08-10T10:25:50.233Z,1025.67
2022-08-10T10:26:34.366Z,1025.66
2022-08-10T10:27:38.975Z,1025.66
2022-08-10T10:29:20.054Z,1025.66
2022-08-10T10:29:58.518Z,1025.66
2022-08-10T10:30:52.200Z,1025.65
2022-08-10T10:33:24.168Z,1025.59
2022-08-10T10:34:28.563Z,1025.59
2022-08-10T10:35:33.030Z,1025.61
2022-08-10T10:36:37.504Z,1025.61
2022-08-10T10:38:01.064Z,1025.58
2022-08-10T10:38:46.454Z,1025.54
2022-08-10T10:39:51.009Z,1025.53
2022-08-10T10:40:55.457Z,1025.52
2022-08-10T10:42:04.415Z,1025.48
2022-08-10T10:43:04.354Z,1025.47
2022-08-10T10:44:08.821Z,1025.44
2022-08-10T10:45:13.190Z,1025.43
2022-08-10T10:46:22.341Z,1025.41
2022-08-10T10:47:22.049Z,1025.42
2022-08-10T10:48:29.025Z,1025.38
2022-08-10T10:49:31.043Z,1025.39
2022-08-10T10:50:35.517Z,1025.37
2022-08-10T10:51:40.010Z,1025.35
2022-08-10T10:52:44.491Z,1025.33
2022-08-10T10:53:48.938Z,1025.36
2022-08-10T10:54:53.406Z,1025.36
2022-08-10T10:56:14.866Z,1025.33
2022-08-10T10:57:02.361Z,1025.32
2022-08-10T10:58:06.842Z,1025.34
2022-08-10T10:59:53.498Z,1025.31
2022-08-10T11:00:15.848Z,1025.35
2022-08-10T11:01:20.414Z,1025.35
2022-08-10T11:02:24.777Z,1025.36
2022-08-10T11:03:29.231Z,1025.37
2022-08-10T11:04:33.681Z,1025.36
2022-08-10T11:05:38.186Z,1025.34
2022-08-10T11:06:42.679Z,1025.34
2022-08-10T11:07:53.161Z,1025.34
2022-08-10T11:08:52.299Z,1025.32
2022-08-10T11:10:08.885Z,1025.30
2022-08-10T11:11:00.533Z,1025.30
2022-08-10T11:12:05.135Z,1025.32
2022-08-10T11:14:24.716Z,1025.33
2022-08-10T11:14:26.463Z,1025.29
2022-08-10T11:15:18.533Z,1025.25
2022-08-10T11:16:28.995Z,1025.29
2022-08-10T11:17:32.381Z,1025.29
2022-08-10T11:18:36.603Z,1025.26
2022-08-10T11:20:00.514Z,1025.27
2022-08-10T11:20:45.584Z,1025.23
2022-08-10T11:21:50.062Z,1025.20
2022-08-10T11:22:54.586Z,1025.18
2022-08-10T11:24:48.089Z,1025.20
2022-08-10T11:25:03.505Z,1025.19
2022-08-10T11:26:07.984Z,1025.17
2022-08-10T11:27:21.932Z,1025.19
2022-08-10T11:28:16.917Z,1025.22
2022-08-10T11:29:21.396Z,1025.20
2022-08-10T11:30:25.886Z,1025.16
2022-08-10T11:31:30.380Z,1025.15
2022-08-10T11:32:34.863Z,1025.12
2022-08-10T11:34:03.986Z,1025.11
2022-08-10T11:34:47.062Z,1025.10
2022-08-10T11:35:48.357Z,1025.10
2022-08-10T11:36:52.822Z,1025.04
2022-08-10T11:38:31.039Z,1025.03
2022-08-10T11:39:13.896Z,1025.00
2022-08-10T11:40:06.340Z,1025.01
2022-08-10T11:42:05.368Z,1024.99
2022-08-10T11:42:28.748Z,1024.95
2022-08-10T11:43:21.188Z,1024.96
2022-08-10T11:44:24.296Z,1024.93
2022-08-10T11:45:28.800Z,1024.94
2022-08-10T11:46:33.303Z,1024.92
2022-08-10T11:47:37.818Z,1024.87
2022-08-10T11:48:54.904Z,1024.94
2022-08-10T11:49:46.840Z,1024.88
2022-08-10T11:50:51.303Z,1024.84
2022-08-10T11:51:55.821Z,1024.83
2022-08-10T11:53:00.344Z,1024.82
2022-08-10T11:54:18.817Z,1024.84
2022-08-10T11:55:22.304Z,1024.84
2022-08-10T11:56:26.730Z,1024.83
2022-08-10T11:57:54.031Z,1024.81
2022-08-10T11:58:35.707Z,1024.79
2022-08-10T11:59:40.172Z,1024.79
2022-08-10T12:00:44.688Z,1024.78
2022-08-10T12:01:49.195Z,1024.77
2022-08-10T12:02:53.672Z,1024.77
2022-08-10T12:03:58.139Z,1024.76
2022-08-10T12:05:02.630Z,1024.74
2022-08-10T12:06:07.153Z,1024.72
2022-08-10T12:10:04.170Z,1024.69
2022-08-10T12:10:04.461Z,1024.69
2022-08-10T12:10:11.307Z,1024.69
2022-08-10T12:10:25.043Z,1024.65
2022-08-10T12:11:29.585Z,1024.68
2022-08-10T12:12:34.062Z,1024.69
2022-08-10T12:13:38.561Z,1024.74
2022-08-10T12:14:43.038Z,1024.70
2022-08-10T12:15:47.491Z,1024.66
2022-08-10T12:16:52.005Z,1024.66
2022-08-10T12:17:56.559Z,1024.64
2022-08-10T12:19:01.062Z,1024.66
2022-08-10T12:20:08.551Z,1024.65
2022-08-10T12:21:21.578Z,1024.63
2022-08-10T12:22:16.709Z,1024.61
2022-08-10T12:23:21.217Z,1024.59
2022-08-10T12:24:25.698Z,1024.59
2022-08-10T12:25:56.883Z,1024.59
2022-08-10T12:26:34.705Z,1024.58
2022-08-10T12:27:39.220Z,1024.55
2022-08-10T12:28:50.295Z,1024.50
2022-08-10T12:29:48.225Z,1024.44
2022-08-10T12:30:55.761Z,1024.45
2022-08-10T12:31:59.435Z,1024.45
2022-08-10T12:33:03.925Z,1024.43
2022-08-10T12:34:08.403Z,1024.41
2022-08-10T12:35:12.940Z,1024.39
2022-08-10T12:36:18.704Z,1024.38
2022-08-10T12:37:21.928Z,1024.34
2022-08-10T12:38:26.432Z,1024.33
2022-08-10T12:39:31.001Z,1024.40
2022-08-10T12:40:36.704Z,1024.35
2022-08-10T12:41:44.596Z,1024.33
2022-08-10T12:42:44.298Z,1024.29
2022-08-10T12:44:06.363Z,1024.31
2022-08-10T12:44:53.345Z,1024.29
2022-08-10T12:45:59.218Z,1024.29
2022-08-10T12:47:10.612Z,1024.29
2022-08-10T12:48:06.867Z,1024.27
2022-08-10T12:49:11.285Z,1024.24
2022-08-10T12:50:30.469Z,1024.20
2022-08-10T12:51:20.288Z,1024.18
2022-08-10T12:52:24.751Z,1024.14
2022-08-10T12:53:29.272Z,1024.11
2022-08-10T12:54:33.716Z,1024.06
2022-08-10T12:55:38.183Z,1024.02
2022-08-10T12:56:42.630Z,1024.03
2022-08-10T12:57:47.195Z,1024.02
2022-08-10T12:58:59.605Z,1024.01
2022-08-10T12:59:56.096Z,1023.99
2022-08-10T13:01:15.560Z,1024.00
2022-08-10T13:02:06.487Z,1024.01
2022-08-10T13:03:09.660Z,1024.02
2022-08-10T13:04:23.371Z,1024.02